Time;durP1;ratioP1;P1;durP2;ratioP2;P2;SDS_P1;SDS_P2;PMS_P1;PMS_P2;Temp;Humidity;BMP_temperature;BMP_pressure;BME280_temperature;BME280_humidity;BME280_pressure;Samples;Min_cycle;Max_cycle;Signal;HPM_P1;HPM_P2
2023/06/30 00:00:11;;;;;;;;;;;21.10;99.90;21.20;99363.00;;;;343046;28;95648;-94
2023/06/30 00:00:25;;;;;;;;;;;21.10;99.90;21.20;99369.00;;;;342180;28;82528;-92
2023/06/30 00:00:37;;;;;;;;;;;21.10;99.90;21.20;99370.00;;;;343117;28;95336;-92
2023/06/30 00:00:50;;;;;;;;;;;21.10;99.90;21.20;99366.00;;;;343886;28;83463;-92
2023/06/30 00:01:02;;;;;;;;;;;21.10;99.90;21.20;99368.00;;;;340444;28;95426;-92
2023/06/30 00:01:14;;;;;;;;;;;21.10;99.90;21.20;99362.00;;;;342301;28;82511;-93
2023/06/30 00:01:27;;;;;;;;;;;21.10;99.90;21.20;99368.00;;;;343132;28;95891;-93
2023/06/30 00:01:48;;;;;;;;;;;21.10;99.90;21.20;99365.00;;;;343715;28;83386;-92
2023/06/30 00:02:01;;;;;;;;;;;21.10;99.90;21.10;99363.00;;;;342985;28;96864;-93
2023/06/30 00:02:13;;;;;;;;;;;21.10;99.90;21.10;99364.00;;;;343688;28;82461;-92
2023/06/30 00:02:26;;;;;;;;;;;21.10;99.90;21.20;99366.00;;;;340233;28;95759;-92
2023/06/30 00:02:40;;;;;;;;;;;21.10;99.90;21.30;99360.00;;;;342504;28;83570;-92
2023/06/30 00:02:55;;;;;;;;;;;21.10;99.90;21.20;99362.00;;;;340561;28;93421;-92
2023/06/30 00:03:07;;;;;;;;;;;21.10;99.90;21.20;99360.00;;;;341066;28;83458;-92
2023/06/30 00:03:19;;;;;;;;;;;21.10;99.90;21.20;99362.00;;;;340351;28;95569;-93
2023/06/30 00:03:32;;;;;;;;;;;21.10;99.90;21.20;99364.00;;;;340886;28;82555;-92
2023/06/30 00:03:45;;;;;;;;;;;21.10;99.90;21.10;99364.00;;;;340246;28;96153;-92
2023/06/30 00:03:57;;;;;;;;;;;21.10;99.90;21.10;99362.00;;;;343874;28;82519;-93
2023/06/30 00:04:12;;;;;;;;;;;21.10;99.90;21.10;99359.00;;;;342700;28;95862;-92
2023/06/30 00:04:26;;;;;;;;;;;21.10;99.90;21.20;99367.00;;;;342458;28;83205;-93
2023/06/30 00:04:39;;;;;;;;;;;21.10;99.90;21.20;99364.00;;;;340445;28;96783;-92
2023/06/30 00:04:51;;;;;;;;;;;21.10;99.90;21.10;99368.00;;;;342465;28;83491;-92
2023/06/30 00:05:04;;;;;;;;;;;21.10;99.90;21.30;99374.00;;;;342884;28;95782;-92
2023/06/30 00:05:16;;;;;;;;;;;21.10;99.90;21.30;99365.00;;;;339760;28;82483;-93
2023/06/30 00:05:28;;;;;;;;;;;21.10;99.90;21.30;99371.00;;;;340435;28;96597;-93
2023/06/30 00:05:41;;;;;;;;;;;21.10;99.90;21.30;99366.00;;;;342379;28;83403;-92
2023/06/30 00:05:53;;;;;;;;;;;21.10;99.90;21.20;99365.00;;;;342940;28;96342;-93
2023/06/30 00:06:05;;;;;;;;;;;21.10;99.90;21.20;99364.00;;;;343430;28;82507;-93
2023/06/30 00:06:19;;;;;;;;;;;21.10;99.90;21.10;99369.00;;;;340346;28;96107;-93
2023/06/30 00:06:31;;;;;;;;;;;21.10;99.90;21.20;99368.00;;;;341133;28;82542;-92
2023/06/30 00:06:44;;;;;;;;;;;21.10;99.90;21.20;99372.00;;;;342930;28;95434;-93
2023/06/30 00:06:57;;;;;;;;;;;21.10;99.90;21.30;99370.00;;;;342566;28;83447;-93
2023/06/30 00:07:10;;;;;;;;;;;21.10;99.90;21.40;99372.00;;;;341539;28;95656;-92
2023/06/30 00:07:22;;;;;;;;;;;21.10;99.90;21.20;99370.00;;;;342376;28;82523;-92
2023/06/30 00:07:34;;;;;;;;;;;21.10;99.90;21.20;99371.00;;;;343006;28;95506;-93
2023/06/30 00:07:46;;;;;;;;;;;21.10;99.90;21.30;99370.00;;;;340976;28;82551;-92
2023/06/30 00:07:58;;;;;;;;;;;21.10;99.90;21.30;99369.00;;;;341728;28;95447;-93
2023/06/30 00:08:11;;;;;;;;;;;21.10;99.90;21.30;99362.00;;;;342437;28;82561;-92
2023/06/30 00:08:23;;;;;;;;;;;21.10;99.90;21.20;99375.00;;;;342827;28;96573;-92
2023/06/30 00:08:35;;;;;;;;;;;21.10;99.90;21.10;99367.00;;;;341037;28;82531;-93
2023/06/30 00:08:50;;;;;;;;;;;21.10;99.90;21.20;99376.00;;;;340297;28;95838;-93
2023/06/30 00:09:07;;;;;;;;;;;21.10;99.90;21.20;99369.00;;;;342197;28;82596;-92
2023/06/30 00:09:19;;;;;;;;;;;21.20;99.90;21.20;99361.00;;;;341652;28;94808;-93
2023/06/30 00:09:31;;;;;;;;;;;21.10;99.90;21.30;99358.00;;;;340855;28;83409;-92
2023/06/30 00:09:44;;;;;;;;;;;21.10;99.90;21.20;99371.00;;;;344259;28;95832;-93
2023/06/30 00:09:56;;;;;;;;;;;21.10;99.90;21.30;99373.00;;;;343683;28;83470;-93
2023/06/30 00:10:09;;;;;;;;;;;21.10;99.90;21.20;99364.00;;;;345544;28;96539;-92
2023/06/30 00:10:22;;;;;;;;;;;21.10;99.90;21.20;99372.00;;;;342299;28;82544;-93
2023/06/30 00:10:34;;;;;;;;;;;21.10;99.90;21.20;99368.00;;;;343143;28;96049;-91
2023/06/30 00:10:46;;;;;;;;;;;21.10;99.90;21.00;99365.00;;;;340997;28;82520;-92
2023/06/30 00:10:58;;;;;;;;;;;21.10;99.90;21.00;99360.00;;;;340392;28;96585;-93
2023/06/30 00:11:10;;;;;;;;;;;21.10;99.90;21.00;99361.00;;;;342098;28;82552;-92
2023/06/30 00:11:23;;;;;;;;;;;21.10;99.90;21.00;99366.00;;;;343161;28;93842;-93
2023/06/30 00:11:38;;;;;;;;;;;21.10;99.90;20.90;99362.00;;;;343564;28;83158;-93
2023/06/30 00:11:50;;;;;;;;;;;21.10;99.90;20.90;99363.00;;;;342620;28;95630;-93
2023/06/30 00:12:03;;;;;;;;;;;21.10;99.90;20.90;99371.00;;;;343831;28;83346;-92
2023/06/30 00:12:16;;;;;;;;;;;21.10;99.90;20.90;99368.00;;;;342838;28;97282;-92
2023/06/30 00:12:28;;;;;;;;;;;21.10;99.90;20.80;99366.00;;;;343810;28;82528;-93
2023/06/30 00:12:39;;;;;;;;;;;21.10;99.90;20.80;99374.00;;;;342860;28;96606;-92
2023/06/30 00:12:51;;;;;;;;;;;21.00;99.90;20.80;99359.00;;;;339663;28;83436;-92
2023/06/30 00:13:03;;;;;;;;;;;21.10;99.90;20.80;99365.00;;;;338630;28;97015;-93
2023/06/30 00:13:15;;;;;;;;;;;21.00;99.90;20.80;99371.00;;;;340677;28;82653;-94
2023/06/30 00:13:27;;;;;;;;;;;21.00;99.90;20.90;99364.00;;;;341650;28;95064;-93
2023/06/30 00:13:39;;;;;;;;;;;21.00;99.90;20.90;99368.00;;;;341238;28;82474;-92
2023/06/30 00:13:52;;;;;;;;;;;21.00;99.90;20.90;99366.00;;;;338903;28;95705;-93
2023/06/30 00:14:04;;;;;;;;;;;21.00;99.90;20.80;99368.00;;;;340690;28;83485;-93
2023/06/30 00:14:16;;;;;;;;;;;21.00;99.90;20.80;99366.00;;;;340180;28;95042;-92
2023/06/30 00:14:28;;;;;;;;;;;21.00;99.90;20.90;99365.00;;;;342142;28;83456;-93
2023/06/30 00:14:40;;;;;;;;;;;21.00;99.90;21.00;99362.00;;;;340285;28;96272;-92
2023/06/30 00:14:52;;;;;;;;;;;21.00;99.90;20.90;99363.00;;;;346376;28;82449;-92
2023/06/30 00:15:05;;;;;;;;;;;21.00;99.90;21.00;99366.00;;;;344326;28;95827;-92
2023/06/30 00:15:17;;;;;;;;;;;21.00;99.90;21.10;99372.00;;;;343633;28;83525;-92
2023/06/30 00:15:29;;;;;;;;;;;21.00;99.90;21.20;99371.00;;;;341640;28;93717;-92
2023/06/30 00:15:41;;;;;;;;;;;21.00;99.90;21.30;99367.00;;;;343681;28;83459;-92
2023/06/30 00:15:54;;;;;;;;;;;21.10;99.90;21.30;99367.00;;;;344322;28;95852;-92
2023/06/30 00:16:06;;;;;;;;;;;21.10;99.90;21.30;99366.00;;;;342476;28;82458;-93
2023/06/30 00:16:19;;;;;;;;;;;21.10;99.90;21.20;99372.00;;;;338923;28;96568;-93
2023/06/30 00:16:31;;;;;;;;;;;21.10;99.90;21.20;99365.00;;;;345135;28;82591;-92
2023/06/30 00:16:43;;;;;;;;;;;21.10;99.90;21.20;99370.00;;;;343999;28;95212;-92
2023/06/30 00:16:56;;;;;;;;;;;21.10;99.90;21.10;99368.00;;;;343325;28;83355;-93
2023/06/30 00:17:08;;;;;;;;;;;21.10;99.90;21.20;99362.00;;;;342486;28;96530;-92
2023/06/30 00:17:20;;;;;;;;;;;21.10;99.90;21.20;99369.00;;;;342037;28;83326;-93
2023/06/30 00:17:34;;;;;;;;;;;21.10;99.90;21.10;99363.00;;;;340046;28;95017;-92
2023/06/30 00:17:48;;;;;;;;;;;21.00;99.90;21.20;99363.00;;;;339466;28;83377;-93
2023/06/30 00:18:00;;;;;;;;;;;21.10;99.90;21.20;99368.00;;;;340034;28;96032;-93
2023/06/30 00:18:12;;;;;;;;;;;21.10;99.90;21.20;99359.00;;;;341933;28;83586;-93
2023/06/30 00:18:24;;;;;;;;;;;21.10;99.90;21.20;99371.00;;;;341364;28;95346;-94
2023/06/30 00:18:36;;;;;;;;;;;21.10;99.90;21.20;99368.00;;;;344943;28;83328;-92
2023/06/30 00:18:48;;;;;;;;;;;21.10;99.90;21.20;99368.00;;;;339960;28;96861;-93
2023/06/30 00:19:00;;;;;;;;;;;21.10;99.90;21.10;99371.00;;;;342008;28;83499;-92
2023/06/30 00:19:12;;;;;;;;;;;21.10;99.90;21.00;99361.00;;;;341146;28;96904;-93
2023/06/30 00:19:24;;;;;;;;;;;21.10;99.90;21.00;99370.00;;;;340729;28;82464;-92
2023/06/30 00:19:37;;;;;;;;;;;21.00;99.90;21.00;99363.00;;;;342607;28;94336;-92
2023/06/30 00:19:50;;;;;;;;;;;21.10;99.90;21.00;99362.00;;;;341949;28;83354;-92
2023/06/30 00:20:06;;;;;;;;;;;21.10;99.90;21.10;99367.00;;;;341558;28;96011;-93
2023/06/30 00:20:18;;;;;;;;;;;21.10;99.90;21.00;99365.00;;;;342079;28;82501;-92
2023/06/30 00:20:30;;;;;;;;;;;21.10;99.90;21.00;99362.00;;;;341296;28;96524;-92
2023/06/30 00:20:43;;;;;;;;;;;21.10;99.90;21.00;99362.00;;;;342198;28;82467;-92
2023/06/30 00:20:55;;;;;;;;;;;21.10;99.90;21.00;99358.00;;;;338677;28;95549;-91
2023/06/30 00:21:07;;;;;;;;;;;21.10;99.90;21.10;99359.00;;;;340726;28;83389;-92
2023/06/30 00:21:19;;;;;;;;;;;21.10;99.90;21.00;99365.00;;;;342838;28;95844;-93
2023/06/30 00:21:31;;;;;;;;;;;21.10;99.90;21.00;99363.00;;;;342242;28;83454;-92
2023/06/30 00:21:43;;;;;;;;;;;21.10;99.90;21.00;99361.00;;;;341403;28;94929;-93
2023/06/30 00:21:55;;;;;;;;;;;21.10;99.90;21.10;99363.00;;;;343701;28;83485;-93
2023/06/30 00:22:08;;;;;;;;;;;21.10;99.90;21.10;99358.00;;;;341418;28;97719;-92
2023/06/30 00:22:21;;;;;;;;;;;21.10;99.90;21.20;99361.00;;;;342232;28;82599;-93
2023/06/30 00:22:36;;;;;;;;;;;21.10;99.90;21.20;99358.00;;;;344112;28;95298;-93
2023/06/30 00:22:48;;;;;;;;;;;21.10;99.90;21.00;99363.00;;;;343529;28;83400;-93
2023/06/30 00:23:00;;;;;;;;;;;21.10;99.90;21.00;99364.00;;;;340198;28;97015;-93
2023/06/30 00:23:14;;;;;;;;;;;21.10;99.90;21.00;99357.00;;;;342037;28;82535;-92
2023/06/30 00:23:29;;;;;;;;;;;21.10;99.90;20.90;99359.00;;;;342747;28;94493;-92
2023/06/30 00:23:41;;;;;;;;;;;21.10;99.90;20.90;99358.00;;;;340850;28;82487;-92
2023/06/30 00:23:53;;;;;;;;;;;21.00;99.90;20.80;99353.00;;;;341366;28;95098;-93
2023/06/30 00:24:05;;;;;;;;;;;21.00;99.90;20.90;99360.00;;;;342286;28;82580;-93
2023/06/30 00:24:18;;;;;;;;;;;21.00;99.90;20.90;99354.00;;;;341236;28;96965;-92
2023/06/30 00:24:29;;;;;;;;;;;21.00;99.90;20.90;99354.00;;;;344595;28;83588;-92
2023/06/30 00:24:41;;;;;;;;;;;21.00;99.90;20.90;99361.00;;;;340047;28;95725;-92
2023/06/30 00:24:54;;;;;;;;;;;21.00;99.90;20.90;99352.00;;;;340705;28;83292;-92
2023/06/30 00:25:07;;;;;;;;;;;21.00;99.90;20.90;99356.00;;;;341281;28;95322;-93
2023/06/30 00:25:18;;;;;;;;;;;21.00;99.90;20.80;99347.00;;;;340676;28;82568;-92
2023/06/30 00:25:30;;;;;;;;;;;21.00;99.90;20.70;99347.00;;;;341196;28;95576;-92
2023/06/30 00:25:42;;;;;;;;;;;20.90;99.90;20.50;99342.00;;;;342129;28;83408;-93
2023/06/30 00:25:55;;;;;;;;;;;20.90;99.90;20.60;99348.00;;;;342971;28;94530;-93
2023/06/30 00:26:06;;;;;;;;;;;20.90;99.90;20.60;99345.00;;;;343722;28;82643;-92
2023/06/30 00:26:18;;;;;;;;;;;20.90;99.90;20.50;99349.00;;;;341393;28;96107;-92
2023/06/30 00:26:31;;;;;;;;;;;20.90;99.90;20.60;99343.00;;;;341017;28;83530;-92
2023/06/30 00:26:43;;;;;;;;;;;20.80;99.90;20.60;99339.00;;;;341577;28;95766;-93
2023/06/30 00:26:55;;;;;;;;;;;20.80;99.90;20.60;99340.00;;;;341115;28;82487;-92
2023/06/30 00:27:07;;;;;;;;;;;20.80;99.90;20.80;99350.00;;;;341570;28;95122;-92
2023/06/30 00:27:19;;;;;;;;;;;20.80;99.90;20.70;99343.00;;;;340890;28;83479;-92
2023/06/30 00:27:31;;;;;;;;;;;20.80;99.90;20.70;99346.00;;;;341622;28;95419;-92
2023/06/30 00:27:43;;;;;;;;;;;20.80;99.90;20.70;99346.00;;;;343740;28;83300;-93
2023/06/30 00:27:54;;;;;;;;;;;20.80;99.90;20.70;99338.00;;;;342862;28;96022;-93
2023/06/30 00:28:06;;;;;;;;;;;20.80;99.90;20.80;99341.00;;;;344837;28;83594;-92
2023/06/30 00:28:18;;;;;;;;;;;20.80;99.90;20.90;99338.00;;;;342764;28;96307;-93
2023/06/30 00:28:30;;;;;;;;;;;20.80;99.90;21.00;99341.00;;;;342325;28;82551;-92
2023/06/30 00:28:42;;;;;;;;;;;20.80;99.90;21.00;99342.00;;;;343218;28;96335;-92
2023/06/30 00:28:54;;;;;;;;;;;20.80;99.90;20.90;99343.00;;;;341179;28;82557;-92
2023/06/30 00:29:07;;;;;;;;;;;20.80;99.90;21.00;99338.00;;;;340288;28;96039;-93
2023/06/30 00:29:19;;;;;;;;;;;20.90;99.90;21.00;99340.00;;;;343833;28;83438;-92
2023/06/30 00:29:31;;;;;;;;;;;20.80;99.90;21.00;99340.00;;;;344442;28;96416;-93
2023/06/30 00:29:43;;;;;;;;;;;20.80;99.90;21.00;99338.00;;;;341300;28;82488;-93
2023/06/30 00:29:54;;;;;;;;;;;20.80;99.90;20.90;99341.00;;;;341979;28;93602;-92
2023/06/30 00:30:07;;;;;;;;;;;20.90;99.90;20.90;99347.00;;;;343531;28;83535;-92
2023/06/30 00:30:19;;;;;;;;;;;20.80;99.90;20.90;99342.00;;;;342959;28;97008;-91
2023/06/30 00:30:31;;;;;;;;;;;20.80;99.90;20.90;99340.00;;;;345220;28;82604;-92
2023/06/30 00:30:43;;;;;;;;;;;20.90;99.90;21.00;99338.00;;;;345853;28;94912;-93
2023/06/30 00:30:55;;;;;;;;;;;20.90;99.90;21.10;99340.00;;;;343858;28;83250;-92
2023/06/30 00:31:07;;;;;;;;;;;20.80;99.90;21.10;99338.00;;;;342822;28;95825;-92
2023/06/30 00:31:20;;;;;;;;;;;20.90;99.90;21.10;99341.00;;;;342532;28;82575;-93
2023/06/30 00:31:32;;;;;;;;;;;20.90;99.90;21.20;99341.00;;;;341563;28;95760;-91
2023/06/30 00:31:44;;;;;;;;;;;20.90;99.90;21.10;99345.00;;;;343664;28;83314;-92
2023/06/30 00:31:56;;;;;;;;;;;20.90;99.90;21.00;99340.00;;;;340201;28;95943;-93
2023/06/30 00:32:08;;;;;;;;;;;20.90;99.90;20.90;99341.00;;;;340991;28;83366;-92
2023/06/30 00:32:20;;;;;;;;;;;20.90;99.90;20.80;99341.00;;;;341602;28;95853;-93
2023/06/30 00:32:32;;;;;;;;;;;20.90;99.90;20.70;99349.00;;;;340901;28;83502;-92
2023/06/30 00:32:44;;;;;;;;;;;20.90;99.90;20.80;99344.00;;;;340360;28;95203;-92
2023/06/30 00:32:56;;;;;;;;;;;20.90;99.90;20.70;99344.00;;;;342408;28;83378;-92
2023/06/30 00:33:08;;;;;;;;;;;20.80;99.90;20.80;99344.00;;;;342993;28;95479;-93
2023/06/30 00:33:20;;;;;;;;;;;20.80;99.90;20.80;99339.00;;;;343573;28;82438;-94
2023/06/30 00:33:32;;;;;;;;;;;20.80;99.90;20.80;99341.00;;;;342966;28;95883;-93
2023/06/30 00:33:44;;;;;;;;;;;20.90;99.90;20.90;99341.00;;;;341201;28;82523;-91
2023/06/30 00:33:57;;;;;;;;;;;20.80;99.90;20.90;99344.00;;;;341800;28;95723;-93
2023/06/30 00:34:09;;;;;;;;;;;20.90;99.90;20.90;99343.00;;;;341205;28;83375;-92
2023/06/30 00:34:20;;;;;;;;;;;20.80;99.90;20.80;99337.00;;;;341866;28;96881;-92
2023/06/30 00:34:32;;;;;;;;;;;20.90;99.90;20.90;99348.00;;;;342299;28;83521;-92
2023/06/30 00:34:44;;;;;;;;;;;20.80;99.90;20.90;99341.00;;;;341701;28;96044;-93
2023/06/30 00:34:56;;;;;;;;;;;20.80;99.90;20.90;99342.00;;;;342537;28;83419;-91
2023/06/30 00:35:08;;;;;;;;;;;20.90;99.90;20.90;99343.00;;;;342937;28;95708;-92
2023/06/30 00:35:20;;;;;;;;;;;20.80;99.90;20.90;99342.00;;;;343711;28;83386;-93
2023/06/30 00:35:33;;;;;;;;;;;20.80;99.90;21.00;99345.00;;;;340377;28;95965;-92
2023/06/30 00:35:45;;;;;;;;;;;20.80;99.90;21.10;99337.00;;;;345363;28;82412;-93
2023/06/30 00:35:58;;;;;;;;;;;20.90;99.90;21.00;99348.00;;;;341715;28;95884;-93
2023/06/30 00:36:10;;;;;;;;;;;20.90;99.90;20.90;99345.00;;;;343936;28;83341;-92
2023/06/30 00:36:22;;;;;;;;;;;20.90;99.90;20.90;99352.00;;;;344594;28;95657;-92
2023/06/30 00:36:35;;;;;;;;;;;20.90;99.90;20.80;99351.00;;;;345382;28;83523;-92
2023/06/30 00:36:48;;;;;;;;;;;20.90;99.90;20.80;99350.00;;;;340504;28;96240;-92
2023/06/30 00:37:02;;;;;;;;;;;20.80;99.90;20.80;99346.00;;;;341315;28;83414;-92
2023/06/30 00:37:13;;;;;;;;;;;20.80;99.90;20.80;99337.00;;;;343112;28;96586;-93
2023/06/30 00:37:26;;;;;;;;;;;20.80;99.90;20.80;99344.00;;;;344014;28;82467;-91
2023/06/30 00:37:38;;;;;;;;;;;20.80;99.90;20.80;99350.00;;;;343152;28;95317;-92
2023/06/30 00:37:50;;;;;;;;;;;20.80;99.90;20.70;99351.00;;;;343928;28;83436;-92
2023/06/30 00:38:02;;;;;;;;;;;20.80;99.90;20.80;99351.00;;;;342111;28;94216;-93
2023/06/30 00:38:14;;;;;;;;;;;20.90;99.90;20.70;99344.00;;;;341176;28;83276;-92
2023/06/30 00:38:26;;;;;;;;;;;20.80;99.90;20.80;99350.00;;;;339285;28;95158;-92
2023/06/30 00:38:38;;;;;;;;;;;20.80;99.90;20.90;99348.00;;;;342450;28;83500;-93
2023/06/30 00:38:54;;;;;;;;;;;20.80;99.90;21.00;99337.00;;;;344639;28;95905;-93
2023/06/30 00:39:06;;;;;;;;;;;20.80;99.90;21.10;99344.00;;;;343965;28;83455;-93
2023/06/30 00:39:18;;;;;;;;;;;20.80;99.90;21.00;99352.00;;;;343077;28;96664;-92
2023/06/30 00:39:30;;;;;;;;;;;20.80;99.90;21.00;99350.00;;;;342544;28;82556;-92
2023/06/30 00:39:42;;;;;;;;;;;20.80;99.90;21.10;99348.00;;;;339258;28;95569;-93
2023/06/30 00:39:55;;;;;;;;;;;20.80;99.90;21.10;99350.00;;;;341159;28;82465;-93
2023/06/30 00:40:07;;;;;;;;;;;20.90;99.90;21.20;99351.00;;;;342049;28;95264;-93
2023/06/30 00:40:19;;;;;;;;;;;20.90;99.90;20.90;99352.00;;;;343886;28;82502;-93
2023/06/30 00:40:31;;;;;;;;;;;20.90;99.90;20.80;99355.00;;;;341431;28;94408;-93
2023/06/30 00:40:43;;;;;;;;;;;20.90;99.90;20.80;99349.00;;;;341262;28;82483;-93
2023/06/30 00:40:55;;;;;;;;;;;20.80;99.90;20.80;99353.00;;;;344528;28;97116;-92
2023/06/30 00:41:07;;;;;;;;;;;20.80;99.90;20.80;99349.00;;;;343828;28;83349;-92
2023/06/30 00:41:19;;;;;;;;;;;20.80;99.90;20.80;99353.00;;;;343004;28;95775;-93
2023/06/30 00:41:31;;;;;;;;;;;20.80;99.90;20.80;99347.00;;;;342341;28;82580;-93
2023/06/30 00:41:43;;;;;;;;;;;20.80;99.90;20.70;99352.00;;;;343127;28;96881;-93
2023/06/30 00:41:55;;;;;;;;;;;20.90;99.90;20.70;99348.00;;;;340281;28;82448;-93
2023/06/30 00:42:08;;;;;;;;;;;20.80;99.90;20.80;99356.00;;;;340379;28;95495;-92
2023/06/30 00:42:20;;;;;;;;;;;20.80;99.90;20.80;99351.00;;;;342465;28;82604;-94
2023/06/30 00:42:32;;;;;;;;;;;20.80;99.90;20.90;99350.00;;;;343205;28;96308;-92
2023/06/30 00:42:44;;;;;;;;;;;20.80;99.90;20.90;99351.00;;;;342623;28;82533;-93
2023/06/30 00:42:56;;;;;;;;;;;20.80;99.90;20.90;99356.00;;;;341954;28;95116;-93
2023/06/30 00:43:09;;;;;;;;;;;20.90;99.90;20.90;99348.00;;;;343891;28;83504;-93
2023/06/30 00:43:21;;;;;;;;;;;20.80;99.90;20.80;99345.00;;;;340574;28;96690;-93
2023/06/30 00:43:33;;;;;;;;;;;20.80;99.90;20.80;99352.00;;;;339973;28;83251;-93
2023/06/30 00:43:45;;;;;;;;;;;20.80;99.90;20.90;99349.00;;;;343542;28;95745;-93
2023/06/30 00:43:58;;;;;;;;;;;20.80;99.90;21.00;99344.00;;;;341641;28;82476;-93
2023/06/30 00:44:10;;;;;;;;;;;20.80;99.90;21.10;99341.00;;;;342191;28;95585;-92
2023/06/30 00:44:22;;;;;;;;;;;20.80;99.90;21.10;99342.00;;;;342644;28;83437;-93
2023/06/30 00:44:35;;;;;;;;;;;20.80;99.90;21.10;99341.00;;;;342051;28;95634;-93
2023/06/30 00:44:48;;;;;;;;;;;20.80;99.90;21.10;99341.00;;;;344203;28;83352;-92
2023/06/30 00:45:00;;;;;;;;;;;20.80;99.90;21.20;99346.00;;;;342243;28;95552;-93
2023/06/30 00:45:12;;;;;;;;;;;20.80;99.90;21.20;99346.00;;;;343869;28;82638;-93
2023/06/30 00:45:24;;;;;;;;;;;20.90;99.90;21.10;99337.00;;;;340761;28;95943;-93
2023/06/30 00:45:37;;;;;;;;;;;20.90;99.90;21.20;99346.00;;;;341300;28;83427;-93
2023/06/30 00:45:48;;;;;;;;;;;20.90;99.90;21.10;99341.00;;;;343395;28;95548;-92
2023/06/30 00:46:01;;;;;;;;;;;20.90;99.90;21.20;99333.00;;;;342838;28;82278;-93
2023/06/30 00:46:16;;;;;;;;;;;20.90;99.90;21.10;99344.00;;;;340619;28;96410;-92
2023/06/30 00:46:29;;;;;;;;;;;20.90;99.90;21.20;99333.00;;;;341582;28;83538;-93
2023/06/30 00:46:41;;;;;;;;;;;20.90;99.90;21.20;99341.00;;;;340476;28;95643;-93
2023/06/30 00:46:53;;;;;;;;;;;20.90;99.90;21.20;99338.00;;;;340049;28;82397;-93
2023/06/30 00:47:05;;;;;;;;;;;21.00;99.90;21.10;99339.00;;;;341969;28;95302;-93
2023/06/30 00:47:18;;;;;;;;;;;21.00;99.90;21.10;99340.00;;;;341416;28;82462;-93
2023/06/30 00:47:30;;;;;;;;;;;21.00;99.90;21.10;99342.00;;;;339396;28;95700;-92
2023/06/30 00:47:43;;;;;;;;;;;21.00;99.90;21.10;99343.00;;;;341417;28;83428;-92
2023/06/30 00:47:54;;;;;;;;;;;21.00;99.90;21.10;99340.00;;;;343341;28;97101;-93
2023/06/30 00:48:07;;;;;;;;;;;21.00;99.90;21.20;99340.00;;;;344138;28;83284;-93
2023/06/30 00:48:19;;;;;;;;;;;21.00;99.90;21.20;99341.00;;;;341916;28;94856;-93
2023/06/30 00:48:31;;;;;;;;;;;21.00;99.90;21.10;99334.00;;;;342721;28;82546;-93
2023/06/30 00:48:44;;;;;;;;;;;21.00;99.90;21.00;99335.00;;;;344714;28;96782;-92
2023/06/30 00:48:56;;;;;;;;;;;21.00;99.90;21.00;99339.00;;;;345581;28;83354;-93
2023/06/30 00:49:09;;;;;;;;;;;21.00;99.90;21.10;99329.00;;;;345796;28;95586;-93
2023/06/30 00:49:21;;;;;;;;;;;21.00;99.90;21.10;99331.00;;;;343997;28;82556;-92
2023/06/30 00:49:33;;;;;;;;;;;21.00;99.90;21.00;99332.00;;;;346175;28;95678;-92
2023/06/30 00:49:45;;;;;;;;;;;21.00;99.90;21.10;99329.00;;;;345335;28;82558;-94
2023/06/30 00:49:57;;;;;;;;;;;21.00;99.90;20.90;99338.00;;;;341733;28;96004;-93
2023/06/30 00:50:10;;;;;;;;;;;21.00;99.90;21.00;99329.00;;;;346646;28;82544;-93
2023/06/30 00:50:24;;;;;;;;;;;21.00;99.90;21.00;99333.00;;;;343385;28;96698;-92
2023/06/30 00:50:36;;;;;;;;;;;21.00;99.90;20.90;99337.00;;;;345354;28;83446;-93
2023/06/30 00:51:02;;;;;;;;;;;21.00;99.90;20.90;99335.00;;;;344647;28;94342;-92
2023/06/30 00:51:14;;;;;;;;;;;21.00;99.90;20.80;99332.00;;;;344072;28;82650;-93
2023/06/30 00:51:26;;;;;;;;;;;20.90;99.90;20.80;99333.00;;;;340597;28;95740;-92
2023/06/30 00:51:39;;;;;;;;;;;20.90;99.90;21.00;99329.00;;;;343954;28;83492;-92
2023/06/30 00:51:51;;;;;;;;;;;20.90;99.90;21.00;99324.00;;;;340582;28;95802;-92
2023/06/30 00:52:04;;;;;;;;;;;20.90;99.90;21.00;99326.00;;;;344155;28;82455;-92
2023/06/30 00:52:16;;;;;;;;;;;20.90;99.90;21.00;99326.00;;;;340638;28;96775;-93
2023/06/30 00:52:28;;;;;;;;;;;20.90;99.90;20.90;99328.00;;;;342540;28;83504;-92
2023/06/30 00:52:42;;;;;;;;;;;20.90;99.90;20.90;99326.00;;;;342020;28;96013;-93
2023/06/30 00:52:55;;;;;;;;;;;20.90;99.90;21.00;99321.00;;;;344131;28;82536;-93
2023/06/30 00:53:07;;;;;;;;;;;20.90;99.90;21.00;99320.00;;;;346050;28;95545;-92
2023/06/30 00:53:19;;;;;;;;;;;20.90;99.90;20.90;99318.00;;;;341169;28;83430;-93
2023/06/30 00:53:32;;;;;;;;;;;20.90;99.90;20.90;99317.00;;;;343070;28;94533;-93
2023/06/30 00:53:44;;;;;;;;;;;20.90;99.90;20.90;99318.00;;;;342609;28;83455;-93
2023/06/30 00:53:56;;;;;;;;;;;20.90;99.90;20.90;99312.00;;;;340905;28;95287;-93
2023/06/30 00:54:08;;;;;;;;;;;20.90;99.90;20.90;99318.00;;;;341440;28;83398;-93
2023/06/30 00:54:21;;;;;;;;;;;20.90;99.90;20.80;99316.00;;;;341951;28;96135;-93
2023/06/30 00:54:33;;;;;;;;;;;20.90;99.90;20.80;99316.00;;;;344136;28;83533;-92
2023/06/30 00:54:46;;;;;;;;;;;20.80;99.90;20.90;99314.00;;;;343171;28;93898;-93
2023/06/30 00:54:58;;;;;;;;;;;20.80;99.90;21.00;99298.00;;;;344032;28;83404;-93
2023/06/30 00:55:10;;;;;;;;;;;20.90;99.90;21.10;99307.00;;;;341794;28;95687;-93
2023/06/30 00:55:22;;;;;;;;;;;20.80;99.90;21.00;99307.00;;;;344335;28;82461;-93
2023/06/30 00:55:34;;;;;;;;;;;20.80;99.90;21.10;99300.00;;;;342190;28;95404;-94
2023/06/30 00:55:50;;;;;;;;;;;20.90;99.90;21.10;99306.00;;;;345441;28;82833;-93
2023/06/30 00:56:03;;;;;;;;;;;20.90;99.90;21.00;99311.00;;;;343399;28;96927;-93
2023/06/30 00:56:15;;;;;;;;;;;20.80;99.90;21.00;99298.00;;;;344105;28;83352;-93
2023/06/30 00:56:35;;;;;;;;;;;20.90;99.90;21.00;99304.00;;;;343252;28;95294;-93
2023/06/30 00:56:47;;;;;;;;;;;20.90;99.90;21.00;99306.00;;;;342833;28;82561;-92
2023/06/30 00:56:59;;;;;;;;;;;20.90;99.90;20.90;99305.00;;;;341858;28;94650;-93
2023/06/30 00:57:11;;;;;;;;;;;20.90;99.90;20.90;99304.00;;;;340402;28;82580;-93
2023/06/30 00:57:24;;;;;;;;;;;20.90;99.90;20.90;99305.00;;;;341894;28;94586;-93
2023/06/30 00:57:36;;;;;;;;;;;20.90;99.90;21.00;99300.00;;;;344208;28;82525;-92
2023/06/30 00:57:48;;;;;;;;;;;20.90;99.90;21.00;99304.00;;;;342949;28;94578;-93
2023/06/30 00:58:00;;;;;;;;;;;20.90;99.90;21.00;99297.00;;;;340108;28;82486;-93
2023/06/30 00:58:17;;;;;;;;;;;20.90;99.90;21.00;99304.00;;;;340658;28;95942;-93
2023/06/30 00:58:29;;;;;;;;;;;20.90;99.90;21.00;99294.00;;;;342683;28;82532;-92
2023/06/30 00:58:45;;;;;;;;;;;20.90;99.90;21.00;99297.00;;;;343366;28;96759;-93
2023/06/30 00:58:58;;;;;;;;;;;20.90;99.90;21.00;99294.00;;;;341533;28;83330;-93
2023/06/30 00:59:09;;;;;;;;;;;20.90;99.90;21.00;99305.00;;;;342926;28;93949;-93
2023/06/30 00:59:21;;;;;;;;;;;20.90;99.90;21.00;99298.00;;;;342780;28;83397;-93
2023/06/30 00:59:34;;;;;;;;;;;20.90;99.90;21.00;99293.00;;;;341805;28;95592;-93
2023/06/30 00:59:46;;;;;;;;;;;20.90;99.90;21.00;99297.00;;;;341154;28;82480;-93
2023/06/30 01:00:05;;;;;;;;;;;20.90;99.90;21.00;99293.00;;;;340626;28;96852;-92
2023/06/30 01:00:17;;;;;;;;;;;20.90;99.90;21.10;99297.00;;;;342882;28;82427;-93
2023/06/30 01:00:37;;;;;;;;;;;20.90;99.90;21.10;99294.00;;;;344519;28;95822;-93
2023/06/30 01:01:07;;;;;;;;;;;20.90;99.90;21.10;99305.00;;;;340138;28;83449;-94
2023/06/30 01:01:28;;;;;;;;;;;20.90;99.90;21.20;99296.00;;;;341775;28;97141;-93
2023/06/30 01:01:46;;;;;;;;;;;20.90;99.90;21.00;99289.00;;;;343019;28;82231;-93
2023/06/30 01:02:07;;;;;;;;;;;20.90;99.90;21.10;99292.00;;;;342139;28;95307;-93
2023/06/30 01:02:24;;;;;;;;;;;20.90;99.90;21.10;99296.00;;;;342833;28;82599;-93
2023/06/30 01:03:01;;;;;;;;;;;20.90;99.90;21.10;99294.00;;;;342125;28;95488;-93
2023/06/30 01:03:24;;;;;;;;;;;20.90;99.90;20.90;99296.00;;;;345218;28;82580;-92
2023/06/30 01:03:42;;;;;;;;;;;20.90;99.90;21.00;99287.00;;;;343141;28;97123;-92